createdAt,value
2022-08-30T00:01:56.392Z,97573.59
2022-08-30T00:04:22.869Z,97566.69
2022-08-30T00:06:49.362Z,97567.13
2022-08-30T00:09:15.806Z,97567.38
2022-08-30T00:11:42.307Z,97565.69
2022-08-30T00:14:08.935Z,97568.97
2022-08-30T00:16:35.405Z,97567.75
2022-08-30T00:19:02.377Z,97573.88
2022-08-30T00:21:28.850Z,97566.19
2022-08-30T00:23:55.365Z,97572.72
2022-08-30T00:26:22.175Z,97571.22
2022-08-30T00:28:48.607Z,97572.75
2022-08-30T00:31:15.433Z,97569.31
2022-08-30T00:33:42.146Z,97562.47
2022-08-30T00:36:08.654Z,97574.72
2022-08-30T00:38:35.072Z,97562.84
2022-08-30T00:41:01.594Z,97567.72
2022-08-30T00:43:30.283Z,97559.19
2022-08-30T00:45:57.699Z,97568.81
2022-08-30T00:48:24.177Z,97565.94
2022-08-30T00:50:54.801Z,97564.75
2022-08-30T00:53:23.819Z,97563.56
2022-08-30T00:55:50.612Z,97567.47
2022-08-30T00:58:21.342Z,97555.88
2022-08-30T01:00:49.046Z,97558.34
2022-08-30T01:03:15.648Z,97557.94
2022-08-30T01:05:42.246Z,97563.06
2022-08-30T01:08:08.685Z,97570.03
2022-08-30T01:10:35.875Z,97562.88
2022-08-30T01:13:02.747Z,97562.34
2022-08-30T01:15:29.213Z,97562.56
2022-08-30T01:17:56.423Z,97565.25
2022-08-30T01:20:25.039Z,97569.34
2022-08-30T01:22:51.452Z,97565.47
2022-08-30T01:25:21.647Z,97564.66
2022-08-30T01:27:50.835Z,97568.13
2022-08-30T01:30:17.472Z,97569.34
2022-08-30T01:32:45.366Z,97566.47
2022-08-30T01:35:12.995Z,97558.09
2022-08-30T01:37:39.522Z,97561.03
2022-08-30T01:40:06.696Z,97556.72
2022-08-30T01:42:33.216Z,97562.81
2022-08-30T01:44:59.627Z,97560.53
2022-08-30T01:47:26.131Z,97555.81
2022-08-30T01:49:52.649Z,97562.13
2022-08-30T01:52:19.247Z,97571.69
2022-08-30T01:54:46.102Z,97565.69
2022-08-30T01:57:13.855Z,97570.59
2022-08-30T01:59:42.514Z,97568.59
2022-08-30T02:02:09.175Z,97575.09
2022-08-30T02:04:36.296Z,97566.50
2022-08-30T02:07:03.737Z,97570.56
2022-08-30T02:09:30.199Z,97571.22
2022-08-30T02:11:56.781Z,97564.63
2022-08-30T02:14:23.545Z,97568.44
2022-08-30T02:16:50.053Z,97575.38
2022-08-30T02:19:18.024Z,97574.22
2022-08-30T02:21:44.754Z,97572.81
2022-08-30T02:24:11.191Z,97573.88
2022-08-30T02:26:37.679Z,97566.75
2022-08-30T02:29:05.338Z,97568.19
2022-08-30T02:31:32.022Z,97560.50
2022-08-30T02:33:58.455Z,97567.63
2022-08-30T02:36:25.193Z,97562.50
2022-08-30T02:38:51.725Z,97562.25
2022-08-30T02:41:18.611Z,97563.84
2022-08-30T02:43:45.042Z,97555.72
2022-08-30T02:46:11.662Z,97556.53
2022-08-30T02:48:38.142Z,97566.53
2022-08-30T02:51:10.553Z,97560.84
2022-08-30T02:53:37.997Z,97560.50
2022-08-30T02:56:04.463Z,97554.84
2022-08-30T02:58:31.165Z,97546.13
2022-08-30T03:00:57.697Z,97541.50
2022-08-30T03:03:24.653Z,97547.91
2022-08-30T03:05:51.154Z,97547.41
2022-08-30T03:08:17.614Z,97553.69
2022-08-30T03:10:44.027Z,97548.00
2022-08-30T03:13:10.458Z,97537.47
2022-08-30T03:15:37.655Z,97541.94
2022-08-30T03:18:04.151Z,97538.22
2022-08-30T03:20:30.618Z,97542.69
2022-08-30T03:22:57.122Z,97541.50
2022-08-30T03:25:23.583Z,97542.31
2022-08-30T03:27:50.719Z,97543.13
2022-08-30T03:30:17.828Z,97542.69
2022-08-30T03:32:44.274Z,97535.00
2022-08-30T03:35:11.313Z,97540.13
2022-08-30T03:37:37.804Z,97544.59
2022-08-30T03:40:05.207Z,97549.09
2022-08-30T03:42:33.126Z,97545.22
2022-08-30T03:45:02.252Z,97544.25
2022-08-30T03:47:29.070Z,97545.94
2022-08-30T03:49:55.891Z,97545.56
2022-08-30T03:52:22.325Z,97541.13
2022-08-30T03:54:48.749Z,97541.78
2022-08-30T03:57:20.284Z,97539.81
2022-08-30T03:59:50.836Z,97542.31
2022-08-30T04:02:17.357Z,97534.97
2022-08-30T04:04:43.820Z,97544.41
2022-08-30T04:07:10.269Z,97544.81
2022-08-30T04:09:36.693Z,97552.19
2022-08-30T04:12:03.303Z,97549.13
2022-08-30T04:14:29.765Z,97545.03
2022-08-30T04:16:56.208Z,97544.78
2022-08-30T04:19:22.631Z,97542.06
2022-08-30T04:21:49.069Z,97536.47
2022-08-30T04:24:15.632Z,97549.56
2022-08-30T04:26:42.100Z,97545.44
2022-08-30T04:29:08.736Z,97550.75
2022-08-30T04:31:35.259Z,97551.56
2022-08-30T04:34:01.735Z,97548.91
2022-08-30T04:36:28.204Z,97546.72
2022-08-30T04:38:54.640Z,97556.09
2022-08-30T04:41:22.671Z,97552.44
2022-08-30T04:43:52.118Z,97554.06
2022-08-30T04:46:19.092Z,97549.97
2022-08-30T04:48:46.309Z,97554.06
2022-08-30T04:51:14.161Z,97560.41
2022-08-30T04:53:41.133Z,97559.97
2022-08-30T04:56:11.509Z,97558.53
2022-08-30T04:58:37.990Z,97564.38
2022-08-30T05:01:04.757Z,97560.50
2022-08-30T05:03:31.237Z,97563.09
2022-08-30T05:05:57.750Z,97574.22
2022-08-30T05:08:24.927Z,97570.09
2022-08-30T05:10:51.844Z,97576.56
2022-08-30T05:13:18.928Z,97572.22
2022-08-30T05:15:45.452Z,97575.88
2022-08-30T05:18:14.049Z,97572.63
2022-08-30T05:20:41.147Z,97580.41
2022-08-30T05:23:07.624Z,97575.25
2022-08-30T05:25:34.870Z,97575.25
2022-08-30T05:28:01.346Z,97586.28
2022-08-30T05:30:28.399Z,97584.47
2022-08-30T05:32:54.969Z,97584.72
2022-08-30T05:35:25.580Z,97591.00
2022-08-30T05:37:52.452Z,97588.75
2022-08-30T05:40:18.988Z,97590.00
2022-08-30T05:42:46.230Z,97592.09
2022-08-30T05:45:13.198Z,97595.78
2022-08-30T05:47:39.872Z,97590.91
2022-08-30T05:50:09.805Z,97595.00
2022-08-30T05:52:36.776Z,97595.53
2022-08-30T05:55:04.356Z,97592.34
2022-08-30T05:57:37.397Z,97599.97
2022-08-30T06:00:07.601Z,97589.19
2022-08-30T06:02:34.088Z,97600.53
2022-08-30T06:05:01.993Z,97600.41
2022-08-30T06:07:28.592Z,97594.97
2022-08-30T06:09:55.031Z,97591.97
2022-08-30T06:12:21.647Z,97599.06
2022-08-30T06:14:48.125Z,97593.00
2022-08-30T06:17:15.559Z,97587.34
2022-08-30T06:19:42.047Z,97591.44
2022-08-30T06:22:08.545Z,97589.56
2022-08-30T06:24:56.540Z,97593.59
2022-08-30T06:27:22.708Z,97590.41
2022-08-30T06:29:51.334Z,97597.34
2022-08-30T06:32:17.841Z,97595.50
2022-08-30T06:34:44.291Z,97594.91
2022-08-30T06:37:10.736Z,97593.13
2022-08-30T06:39:37.165Z,97584.69
2022-08-30T06:42:03.654Z,97587.56
2022-08-30T06:44:30.162Z,97592.22
2022-08-30T06:46:56.686Z,97597.34
2022-08-30T06:49:23.208Z,97596.88
2022-08-30T06:51:49.673Z,97596.41
2022-08-30T06:54:18.062Z,97600.31
2022-08-30T06:56:57.702Z,97599.75
2022-08-30T06:59:25.503Z,97600.38
2022-08-30T07:01:53.573Z,97588.22
2022-08-30T07:04:20.043Z,97588.41
2022-08-30T07:06:46.501Z,97591.44
2022-08-30T07:09:12.937Z,97589.78
2022-08-30T07:11:41.013Z,97588.69
2022-08-30T07:14:07.707Z,97590.94
2022-08-30T07:16:34.260Z,97592.63
2022-08-30T07:19:01.874Z,97590.75
2022-08-30T07:21:36.257Z,97586.50
2022-08-30T07:24:02.749Z,97589.53
2022-08-30T07:26:31.027Z,97592.97
2022-08-30T07:28:57.752Z,97588.44
2022-08-30T07:31:24.486Z,97589.47
2022-08-30T07:33:51.083Z,97589.13
2022-08-30T07:36:18.030Z,97594.03
2022-08-30T07:38:45.337Z,97594.16
2022-08-30T07:41:16.447Z,97588.06
2022-08-30T07:43:42.932Z,97583.69
2022-08-30T07:46:09.989Z,97581.16
2022-08-30T07:48:36.833Z,97589.63
2022-08-30T07:51:05.513Z,97591.22
2022-08-30T07:53:32.204Z,97586.88
2022-08-30T07:55:59.185Z,97588.84
2022-08-30T07:58:25.642Z,97583.56
2022-08-30T08:00:52.101Z,97584.16
2022-08-30T08:03:19.321Z,97583.94
2022-08-30T08:05:46.124Z,97589.41
2022-08-30T08:08:13.887Z,97586.00
2022-08-30T08:10:40.829Z,97588.09
2022-08-30T08:13:07.329Z,97587.41
2022-08-30T08:15:33.848Z,97584.63
2022-08-30T08:18:01.201Z,97597.13
2022-08-30T08:20:27.962Z,97591.13
2022-08-30T08:22:54.665Z,97591.84
2022-08-30T08:25:21.137Z,97593.16
2022-08-30T08:27:48.943Z,97597.69
2022-08-30T08:30:15.572Z,97599.16
2022-08-30T08:32:42.053Z,97597.28
2022-08-30T08:35:08.608Z,97598.66
2022-08-30T08:37:35.033Z,97593.56
2022-08-30T08:40:01.615Z,97587.38
2022-08-30T08:42:48.368Z,97591.84
2022-08-30T08:45:16.689Z,97583.97
2022-08-30T08:48:13.023Z,97592.28
2022-08-30T08:51:02.081Z,97584.53
2022-08-30T08:53:51.457Z,97585.44
2022-08-30T08:56:18.675Z,97582.91
2022-08-30T08:58:46.237Z,97583.50
2022-08-30T09:01:13.430Z,97579.63
2022-08-30T09:03:39.933Z,97583.56
2022-08-30T09:06:20.398Z,97585.91
2022-08-30T09:08:46.823Z,97580.72
2022-08-30T09:11:16.747Z,97583.69
2022-08-30T09:13:43.216Z,97581.41
2022-08-30T09:16:09.773Z,97582.56
2022-08-30T09:18:45.451Z,97573.34
2022-08-30T09:21:12.531Z,97570.50
2022-08-30T09:23:46.975Z,97577.06
2022-08-30T09:26:13.821Z,97575.19
2022-08-30T09:28:44.925Z,97582.22
2022-08-30T09:31:18.729Z,97572.78
2022-08-30T09:33:55.221Z,97568.94
2022-08-30T09:36:42.073Z,97578.16
2022-08-30T09:39:17.754Z,97575.44
2022-08-30T09:41:45.129Z,97572.75
2022-08-30T09:44:16.508Z,97576.31
2022-08-30T09:46:53.541Z,97571.22
2022-08-30T09:49:30.480Z,97564.97
2022-08-30T09:52:15.221Z,97559.00
2022-08-30T09:54:47.752Z,97554.63
2022-08-30T09:57:34.499Z,97566.34
2022-08-30T10:00:21.530Z,97566.69
2022-08-30T10:03:14.370Z,97554.38
2022-08-30T10:05:45.716Z,97554.41
2022-08-30T10:08:20.522Z,97547.69
2022-08-30T10:10:52.239Z,97552.44
2022-08-30T10:13:28.728Z,97543.44
2022-08-30T10:15:59.922Z,97548.47
2022-08-30T10:18:30.846Z,97545.97
2022-08-30T10:20:57.300Z,97542.50
2022-08-30T10:23:34.268Z,97533.53
2022-08-30T10:26:03.817Z,97537.75
2022-08-30T10:28:30.213Z,97540.88
2022-08-30T10:30:57.770Z,97538.75
2022-08-30T10:33:31.790Z,97537.00
2022-08-30T10:35:58.736Z,97537.59
2022-08-30T10:38:33.001Z,97536.38
2022-08-30T10:41:20.316Z,97528.72
2022-08-30T10:43:53.553Z,97531.19
2022-08-30T10:46:24.485Z,97533.91
2022-08-30T10:48:50.891Z,97528.16
2022-08-30T10:51:21.642Z,97530.00
2022-08-30T10:54:21.891Z,97531.31
2022-08-30T10:56:49.549Z,97530.06
2022-08-30T10:59:19.218Z,97526.88
2022-08-30T11:01:54.795Z,97537.00
2022-08-30T11:04:21.198Z,97524.22
2022-08-30T11:07:00.386Z,97535.78
2022-08-30T11:09:29.873Z,97530.16
2022-08-30T11:11:56.289Z,97527.34
2022-08-30T11:14:25.379Z,97532.09
2022-08-30T11:16:52.674Z,97529.28
2022-08-30T11:19:32.156Z,97524.75
2022-08-30T11:22:22.172Z,97523.59
2022-08-30T11:24:59.586Z,97527.50
2022-08-30T11:27:41.391Z,97522.50
2022-08-30T11:30:27.006Z,97522.28
2022-08-30T11:32:57.339Z,97507.19
2022-08-30T11:38:29.919Z,97514.38
2022-08-30T11:40:56.334Z,97516.47
2022-08-30T11:43:40.060Z,97521.53
2022-08-30T11:46:15.801Z,97518.56
2022-08-30T11:48:53.564Z,97517.19
2022-08-30T11:51:40.985Z,97524.75
2022-08-30T11:54:22.123Z,97515.84
2022-08-30T11:56:54.584Z,97512.78
2022-08-30T11:59:35.712Z,97514.31
2022-08-30T12:02:02.293Z,97505.25
2022-08-30T12:04:44.119Z,97504.41
2022-08-30T12:07:10.999Z,97514.91
2022-08-30T12:09:37.781Z,97515.06
2022-08-30T12:12:08.298Z,97499.34
2022-08-30T12:14:49.014Z,97497.09
2022-08-30T12:17:42.960Z,97495.88
2022-08-30T12:20:29.529Z,97493.28
2022-08-30T12:22:56.669Z,97495.53
2022-08-30T12:25:33.724Z,97496.91
2022-08-30T12:28:15.633Z,97499.16
2022-08-30T12:30:42.469Z,97496.47
2022-08-30T12:33:14.251Z,97487.91
2022-08-30T12:35:41.883Z,97487.06
2022-08-30T12:38:13.138Z,97496.72
2022-08-30T12:40:41.318Z,97499.72
2022-08-30T12:43:17.397Z,97495.28
2022-08-30T12:45:45.041Z,97488.53
2022-08-30T12:48:17.593Z,97479.38
2022-08-30T12:50:51.629Z,97486.53
2022-08-30T12:53:28.745Z,97491.03
2022-08-30T12:55:59.345Z,97486.19
2022-08-30T12:58:34.390Z,97487.81
2022-08-30T13:01:19.465Z,97494.47
2022-08-30T13:04:13.652Z,97491.81
2022-08-30T13:06:43.807Z,97496.31
2022-08-30T13:09:22.302Z,97482.84
2022-08-30T13:11:49.040Z,97478.53
2022-08-30T13:14:20.252Z,97475.09
2022-08-30T13:16:47.299Z,97486.16
2022-08-30T13:19:32.007Z,97472.63
2022-08-30T13:21:58.840Z,97479.13
2022-08-30T13:24:25.819Z,97473.53
2022-08-30T13:26:53.321Z,97473.28
2022-08-30T13:29:21.535Z,97470.22
2022-08-30T13:31:49.544Z,97475.59
2022-08-30T13:34:18.991Z,97470.28
2022-08-30T13:36:50.390Z,97466.22
2022-08-30T13:39:17.139Z,97475.22
2022-08-30T13:41:48.201Z,97481.66
2022-08-30T13:44:15.876Z,97479.81
2022-08-30T13:46:43.470Z,97478.78
2022-08-30T13:52:19.432Z,97484.00
2022-08-30T13:54:46.405Z,97477.41
2022-08-30T13:57:16.574Z,97471.75
2022-08-30T13:59:43.068Z,97465.97
2022-08-30T14:02:16.394Z,97467.50
2022-08-30T14:04:42.958Z,97469.78
2022-08-30T14:07:14.105Z,97473.56
2022-08-30T14:09:46.565Z,97473.44
2022-08-30T14:12:13.009Z,97475.38
2022-08-30T14:14:42.974Z,97471.81
2022-08-30T14:17:10.763Z,97465.31
2022-08-30T14:19:39.043Z,97469.06
2022-08-30T14:22:05.491Z,97454.16
2022-08-30T14:24:32.405Z,97457.03
2022-08-30T14:27:00.036Z,97459.81
2022-08-30T14:29:29.761Z,97461.00
2022-08-30T14:31:56.606Z,97466.41
2022-08-30T14:34:25.103Z,97464.91
2022-08-30T14:36:51.556Z,97458.44
2022-08-30T14:39:21.289Z,97467.69
2022-08-30T14:41:48.677Z,97472.00
2022-08-30T14:44:15.778Z,97459.56
2022-08-30T14:46:42.660Z,97477.66
2022-08-30T14:49:11.131Z,97462.53
2022-08-30T14:51:37.868Z,97460.13
2022-08-30T14:54:04.780Z,97465.75
2022-08-30T14:56:31.415Z,97459.31
2022-08-30T14:59:00.635Z,97456.31
2022-08-30T15:01:27.782Z,97464.16
2022-08-30T15:03:54.559Z,97464.75
2022-08-30T15:06:22.143Z,97464.47
2022-08-30T15:08:48.657Z,97457.16
2022-08-30T15:11:16.886Z,97446.63
2022-08-30T15:13:46.314Z,97448.28
2022-08-30T15:16:23.407Z,97439.38
2022-08-30T15:18:50.368Z,97442.06
2022-08-30T15:21:46.245Z,97442.31
2022-08-30T15:24:13.833Z,97445.25
2022-08-30T15:26:44.086Z,97443.38
2022-08-30T15:29:11.327Z,97440.16
2022-08-30T15:31:38.609Z,97442.00
2022-08-30T15:34:05.130Z,97442.84
2022-08-30T15:36:33.129Z,97439.09
2022-08-30T15:39:00.627Z,97438.81
2022-08-30T15:41:27.672Z,97421.78
2022-08-30T15:43:56.332Z,97437.19
2022-08-30T15:46:29.445Z,97422.56
2022-08-30T15:48:58.406Z,97428.53
2022-08-30T15:51:25.060Z,97432.28
2022-08-30T15:53:52.087Z,97425.25
2022-08-30T15:56:18.978Z,97423.06
2022-08-30T15:58:45.664Z,97427.66
2022-08-30T16:01:15.175Z,97422.66
2022-08-30T16:03:41.737Z,97417.00
2022-08-30T16:06:15.136Z,97414.63
2022-08-30T16:08:43.076Z,97414.84
2022-08-30T16:11:13.582Z,97410.25
2022-08-30T16:13:42.195Z,97412.88
2022-08-30T16:16:09.007Z,97408.03
2022-08-30T16:18:36.160Z,97409.03
2022-08-30T16:21:04.151Z,97410.63
2022-08-30T16:23:30.615Z,97399.78
2022-08-30T16:26:04.270Z,97392.44
2022-08-30T16:28:31.114Z,97393.75
2022-08-30T16:30:58.238Z,97393.44
2022-08-30T16:33:24.769Z,97398.28
2022-08-30T16:35:52.002Z,97393.97
2022-08-30T16:38:18.608Z,97389.91
2022-08-30T16:40:45.152Z,97399.84
2022-08-30T16:43:12.608Z,97393.94
2022-08-30T16:45:40.058Z,97405.19
2022-08-30T16:48:06.775Z,97398.44
2022-08-30T16:50:37.570Z,97404.84
2022-08-30T16:53:04.586Z,97403.63
2022-08-30T16:55:37.585Z,97406.81
2022-08-30T16:58:04.736Z,97411.78
2022-08-30T17:00:32.290Z,97409.06
2022-08-30T17:02:58.982Z,97411.00
2022-08-30T17:05:25.539Z,97412.03
2022-08-30T17:07:51.975Z,97412.22
2022-08-30T17:10:23.101Z,97418.66
2022-08-30T17:12:50.002Z,97408.72
2022-08-30T17:15:16.695Z,97403.34
2022-08-30T17:17:43.407Z,97404.25
2022-08-30T17:20:10.096Z,97402.31
2022-08-30T17:22:36.587Z,97410.56
2022-08-30T17:25:03.086Z,97419.84
2022-08-30T17:27:29.523Z,97416.25
2022-08-30T17:29:56.009Z,97418.50
2022-08-30T17:32:22.689Z,97423.53
2022-08-30T17:34:51.115Z,97415.72
2022-08-30T17:37:20.336Z,97426.38
2022-08-30T17:39:49.892Z,97434.03
2022-08-30T17:42:16.386Z,97433.06
2022-08-30T17:44:43.074Z,97447.38
2022-08-30T17:47:10.298Z,97436.53
2022-08-30T17:49:36.769Z,97439.78
2022-08-30T17:52:03.968Z,97444.41
2022-08-30T17:54:31.820Z,97449.59
2022-08-30T17:56:58.436Z,97449.53
2022-08-30T17:59:25.813Z,97449.91
2022-08-30T18:01:52.497Z,97451.44
2022-08-30T18:04:19.597Z,97458.25
2022-08-30T18:06:46.488Z,97463.44
2022-08-30T18:09:13.217Z,97466.03
2022-08-30T18:11:39.810Z,97469.78
2022-08-30T18:14:06.609Z,97466.41
2022-08-30T18:16:38.236Z,97471.47
2022-08-30T18:19:09.593Z,97478.28
2022-08-30T18:21:36.588Z,97481.53
2022-08-30T18:24:03.262Z,97482.91
2022-08-30T18:26:30.599Z,97483.19
2022-08-30T18:28:57.038Z,97488.31
2022-08-30T18:31:23.459Z,97483.44
2022-08-30T18:33:49.952Z,97486.13
2022-08-30T18:36:16.417Z,97499.06
2022-08-30T18:38:44.491Z,97493.72
2022-08-30T18:41:13.795Z,97492.09
2022-08-30T18:43:40.402Z,97498.84
2022-08-30T18:46:09.351Z,97505.69
2022-08-30T18:48:36.295Z,97502.44
2022-08-30T18:51:02.757Z,97506.84
2022-08-30T18:53:29.505Z,97501.03
2022-08-30T18:55:56.253Z,97505.88
2022-08-30T18:58:22.682Z,97500.88
2022-08-30T19:00:49.320Z,97506.06
2022-08-30T19:03:18.323Z,97505.38
2022-08-30T19:05:45.463Z,97511.41
2022-08-30T19:08:11.999Z,97508.97
2022-08-30T19:10:38.978Z,97505.50
2022-08-30T19:13:06.123Z,97508.75
2022-08-30T19:15:34.269Z,97505.50
2022-08-30T19:18:01.739Z,97503.06
2022-08-30T19:20:28.250Z,97502.13
2022-08-30T19:23:23.052Z,97501.53
2022-08-30T19:25:41.939Z,97509.66
2022-08-30T19:28:08.695Z,97502.47
2022-08-30T19:30:35.522Z,97505.78
2022-08-30T19:33:02.125Z,97513.34
2022-08-30T19:35:30.166Z,97509.16
2022-08-30T19:37:56.879Z,97509.84
2022-08-30T19:40:23.388Z,97514.69
2022-08-30T19:42:52.013Z,97515.25
2022-08-30T19:45:21.486Z,97509.38
2022-08-30T19:47:48.837Z,97512.38
2022-08-30T19:50:15.871Z,97514.91
2022-08-30T19:52:42.362Z,97522.50
2022-08-30T19:55:09.189Z,97518.31
2022-08-30T19:57:35.827Z,97518.63
2022-08-30T20:00:02.413Z,97517.41
2022-08-30T20:02:28.921Z,97521.88
2022-08-30T20:04:55.599Z,97527.28
2022-08-30T20:07:26.202Z,97525.13
2022-08-30T20:09:54.118Z,97512.06
2022-08-30T20:12:20.557Z,97508.44
2022-08-30T20:14:47.163Z,97510.50
2022-08-30T20:17:14.490Z,97512.81
2022-08-30T20:19:41.727Z,97517.56
2022-08-30T20:22:08.449Z,97508.38
2022-08-30T20:27:03.700Z,97518.81
2022-08-30T20:29:30.292Z,97515.16
2022-08-30T20:31:57.058Z,97512.19
2022-08-30T20:34:27.478Z,97519.41
2022-08-30T20:36:54.834Z,97510.41
2022-08-30T20:39:21.862Z,97508.19
2022-08-30T20:41:48.964Z,97512.69
2022-08-30T20:44:16.377Z,97508.44
2022-08-30T20:46:43.806Z,97512.75
2022-08-30T20:49:10.438Z,97513.03
2022-08-30T20:51:36.974Z,97515.91
2022-08-30T20:54:06.207Z,97515.31
2022-08-30T20:56:34.327Z,97507.75
2022-08-30T20:59:02.575Z,97515.75
2022-08-30T21:01:30.630Z,97512.69
2022-08-30T21:03:57.140Z,97511.25
2022-08-30T21:06:23.806Z,97514.13
2022-08-30T21:08:50.238Z,97516.34
2022-08-30T21:11:16.695Z,97514.72
2022-08-30T21:13:43.350Z,97513.69
2022-08-30T21:16:09.790Z,97521.66
2022-08-30T21:18:38.939Z,97525.53
2022-08-30T21:21:13.092Z,97524.44
2022-08-30T21:23:39.601Z,97520.94
2022-08-30T21:26:06.693Z,97515.81
2022-08-30T21:28:33.370Z,97525.88
2022-08-30T21:31:10.408Z,97526.28
2022-08-30T21:33:37.034Z,97527.75
2022-08-30T21:36:22.793Z,97526.56
2022-08-30T21:38:49.205Z,97526.63
2022-08-30T21:41:15.649Z,97519.44
2022-08-30T21:43:42.100Z,97524.19
2022-08-30T21:46:09.528Z,97520.06
2022-08-30T21:48:37.371Z,97536.06
2022-08-30T21:51:07.911Z,97534.88
2022-08-30T21:53:34.556Z,97534.50
2022-08-30T21:56:07.868Z,97534.09
2022-08-30T21:58:39.616Z,97533.50
2022-08-30T22:01:25.833Z,97532.69
2022-08-30T22:03:53.374Z,97533.31
2022-08-30T22:06:19.855Z,97534.19
2022-08-30T22:08:47.138Z,97538.75
2022-08-30T22:11:17.994Z,97538.13
2022-08-30T22:13:45.267Z,97536.28
2022-08-30T22:16:14.888Z,97532.97
2022-08-30T22:18:41.379Z,97532.59
2022-08-30T22:21:08.322Z,97532.81
2022-08-30T22:23:34.851Z,97539.63
2022-08-30T22:26:01.814Z,97536.34
2022-08-30T22:28:28.293Z,97538.41
2022-08-30T22:30:54.732Z,97545.81
2022-08-30T22:33:21.173Z,97539.88
2022-08-30T22:35:47.615Z,97540.09
2022-08-30T22:38:14.628Z,97535.97
2022-08-30T22:40:45.468Z,97543.63
2022-08-30T22:43:12.422Z,97543.63
2022-08-30T22:45:38.947Z,97542.59
2022-08-30T22:48:05.521Z,97536.25
2022-08-30T22:50:31.942Z,97540.16
2022-08-30T22:52:58.674Z,97544.06
2022-08-30T22:55:25.086Z,97539.34
2022-08-30T22:57:51.974Z,97537.28
2022-08-30T23:00:20.317Z,97535.25
2022-08-30T23:02:48.176Z,97533.22
2022-08-30T23:05:15.535Z,97531.19
2022-08-30T23:07:42.186Z,97535.69
2022-08-30T23:10:09.164Z,97536.09
2022-08-30T23:12:38.792Z,97546.75
2022-08-30T23:15:06.658Z,97535.50
2022-08-30T23:17:39.621Z,97540.00
2022-08-30T23:20:06.579Z,97533.25
2022-08-30T23:22:33.034Z,97534.28
2022-08-30T23:25:18.094Z,97532.44
2022-08-30T23:28:03.741Z,97531.84
2022-08-30T23:30:49.074Z,97530.41
2022-08-30T23:33:34.421Z,97526.53
2022-08-30T23:36:25.282Z,97524.28
2022-08-30T23:39:10.476Z,97525.09
2022-08-30T23:41:55.739Z,97520.00
2022-08-30T23:44:40.874Z,97523.50
2022-08-30T23:47:25.975Z,97531.09
2022-08-30T23:50:11.082Z,97535.41
2022-08-30T23:52:56.237Z,97527.84
2022-08-30T23:55:41.570Z,97529.88
2022-08-30T23:58:26.631Z,97528.66
